createdAt,value
2019-04-25T00:00:51.441Z,991.4
2019-04-25T00:01:52.314Z,991.4
2019-04-25T00:02:51.705Z,991.4
2019-04-25T00:03:53.395Z,991.4
2019-04-25T00:04:53.061Z,991.4
2019-04-25T00:05:53.754Z,991.3
2019-04-25T00:06:54.442Z,991.3
2019-04-25T00:07:55.129Z,991.3
2019-04-25T00:08:55.830Z,991.3
2019-04-25T00:09:56.498Z,991.3
2019-04-25T00:10:57.197Z,991.3
2019-04-25T00:11:59.676Z,991.3
2019-04-25T00:12:58.595Z,991.2
2019-04-25T00:13:59.281Z,991.2
2019-04-25T00:15:01.280Z,991.2
2019-04-25T00:16:01.871Z,991.2
2019-04-25T00:17:01.753Z,991.2
2019-04-25T00:18:02.334Z,991.2
2019-04-25T00:19:02.689Z,991.1
2019-04-25T00:20:03.379Z,991.1
2019-04-25T00:21:04.062Z,991.0
2019-04-25T00:22:04.755Z,991.1
2019-04-25T00:23:05.441Z,991.1
2019-04-25T00:24:06.119Z,991.1
2019-04-25T00:25:15.017Z,991.1
2019-04-25T00:26:07.497Z,991.0
2019-04-25T00:27:08.174Z,991.0
2019-04-25T00:28:08.851Z,990.9
2019-04-25T00:29:09.546Z,990.9
2019-04-25T00:30:11.326Z,990.9
2019-04-25T00:31:11.979Z,990.9
2019-04-25T00:32:11.750Z,990.9
2019-04-25T00:33:12.279Z,991.0
2019-04-25T00:34:12.953Z,991.0
2019-04-25T00:35:13.639Z,991.1
2019-04-25T00:36:14.327Z,991.2
2019-04-25T00:37:15.011Z,991.2
2019-04-25T00:38:15.701Z,991.2
2019-04-25T00:39:16.384Z,991.2
2019-04-25T00:40:17.068Z,991.2
2019-04-25T00:41:17.751Z,991.2
2019-04-25T00:42:18.436Z,991.2
2019-04-25T00:43:19.121Z,991.2
2019-04-25T00:44:19.805Z,991.2
2019-04-25T00:45:22.060Z,991.2
2019-04-25T00:46:22.533Z,991.2
2019-04-25T00:47:21.856Z,991.2
2019-04-25T00:48:22.540Z,991.2
2019-04-25T00:49:23.701Z,991.2
2019-04-25T00:50:24.053Z,991.2
2019-04-25T00:51:24.736Z,991.2
2019-04-25T00:52:25.446Z,991.2
2019-04-25T00:53:26.101Z,991.1
2019-04-25T00:54:26.783Z,991.2
2019-04-25T00:55:28.983Z,991.3
2019-04-25T00:56:28.151Z,991.3
2019-04-25T00:57:28.832Z,991.3
2019-04-25T00:58:29.541Z,991.3
2019-04-25T00:59:31.924Z,991.3
2019-04-25T01:00:32.581Z,991.4
2019-04-25T01:01:31.727Z,991.4
2019-04-25T01:02:32.258Z,991.4
2019-04-25T01:03:32.942Z,991.4
2019-04-25T01:04:33.752Z,991.4
2019-04-25T01:05:34.299Z,991.5
2019-04-25T01:06:34.982Z,991.5
2019-04-25T01:07:35.667Z,991.5
2019-04-25T01:08:36.359Z,991.5
2019-04-25T01:09:37.035Z,991.6
2019-04-25T01:10:37.770Z,991.6
2019-04-25T01:11:38.448Z,991.6
2019-04-25T01:12:39.137Z,991.5
2019-04-25T01:13:39.822Z,991.5
2019-04-25T01:14:42.001Z,991.6
2019-04-25T01:15:42.479Z,991.5
2019-04-25T01:16:41.855Z,991.6
2019-04-25T01:17:42.533Z,991.5
2019-04-25T01:18:43.620Z,991.5
2019-04-25T01:19:44.958Z,991.6
2019-04-25T01:20:45.369Z,991.6
2019-04-25T01:21:45.586Z,991.6
2019-04-25T01:22:45.938Z,991.6
2019-04-25T01:23:47.288Z,991.6
2019-04-25T01:24:47.305Z,991.5
2019-04-25T01:25:47.992Z,991.5
2019-04-25T01:26:49.600Z,991.5
2019-04-25T01:27:49.750Z,991.5
2019-04-25T01:28:50.019Z,991.5
2019-04-25T01:29:50.698Z,991.4
2019-04-25T01:30:52.075Z,991.4
2019-04-25T01:31:53.725Z,991.4
2019-04-25T01:32:54.297Z,991.4
2019-04-25T01:33:54.635Z,991.4
2019-04-25T01:34:58.386Z,991.4
2019-04-25T01:35:55.679Z,991.3
2019-04-25T01:36:56.979Z,991.2
2019-04-25T01:37:57.308Z,991.2
2019-04-25T01:38:58.856Z,991.2
2019-04-25T01:39:58.404Z,991.2
2019-04-25T01:40:59.089Z,991.2
2019-04-25T01:41:59.767Z,991.1
2019-04-25T01:43:00.449Z,991.1
2019-04-25T01:44:01.134Z,991.1
2019-04-25T01:45:01.819Z,991.1
2019-04-25T01:46:03.374Z,991.1
2019-04-25T01:47:04.208Z,991.1
2019-04-25T01:48:03.906Z,991.0
2019-04-25T01:49:04.585Z,991.0
2019-04-25T01:50:05.280Z,991.0
2019-04-25T01:51:06.004Z,990.9
2019-04-25T01:52:06.685Z,990.9
2019-04-25T01:53:07.365Z,990.9
2019-04-25T01:54:08.044Z,990.9
2019-04-25T01:55:08.748Z,990.9
2019-04-25T01:56:09.415Z,990.9
2019-04-25T01:57:10.100Z,990.9
2019-04-25T01:58:10.784Z,990.9
2019-04-25T01:59:11.462Z,991.0
2019-04-25T02:00:13.777Z,991.0
2019-04-25T02:01:14.245Z,990.9
2019-04-25T02:02:14.035Z,990.9
2019-04-25T02:03:14.191Z,990.9
2019-04-25T02:04:14.872Z,990.9
2019-04-25T02:05:15.551Z,990.9
2019-04-25T02:06:16.238Z,990.9
2019-04-25T02:07:16.919Z,990.9
2019-04-25T02:08:17.613Z,990.8
2019-04-25T02:09:18.288Z,990.8
2019-04-25T02:10:18.974Z,990.9
2019-04-25T02:11:19.659Z,991.0
2019-04-25T02:12:20.383Z,991.0
2019-04-25T02:13:21.032Z,991.0
2019-04-25T02:14:21.719Z,991.0
2019-04-25T02:15:23.471Z,991.0
2019-04-25T02:16:23.825Z,991.0
2019-04-25T02:17:24.112Z,991.0
2019-04-25T02:18:24.434Z,991.0
2019-04-25T02:19:25.114Z,991.1
2019-04-25T02:20:25.798Z,991.1
2019-04-25T02:21:26.492Z,991.1
2019-04-25T02:22:27.179Z,991.1
2019-04-25T02:23:27.848Z,991.2
2019-04-25T02:24:28.541Z,991.3
2019-04-25T02:25:29.216Z,991.3
2019-04-25T02:26:29.897Z,991.3
2019-04-25T02:27:30.583Z,991.4
2019-04-25T02:28:31.270Z,991.4
2019-04-25T02:29:33.250Z,991.4
2019-04-25T02:30:35.284Z,991.4
2019-04-25T02:31:34.745Z,991.5
2019-04-25T02:32:36.788Z,991.5
2019-04-25T02:33:34.654Z,991.5
2019-04-25T02:34:35.342Z,991.6
2019-04-25T02:35:36.016Z,991.6
2019-04-25T02:36:36.699Z,991.6
2019-04-25T02:37:37.383Z,991.6
2019-04-25T02:38:38.064Z,991.6
2019-04-25T02:39:38.744Z,991.5
2019-04-25T02:40:39.424Z,991.6
2019-04-25T02:41:40.112Z,991.6
2019-04-25T02:42:40.799Z,991.6
2019-04-25T02:43:41.477Z,991.6
2019-04-25T02:44:44.424Z,991.6
2019-04-25T02:45:44.218Z,991.7
2019-04-25T02:46:44.941Z,991.7
2019-04-25T02:47:46.209Z,991.7
2019-04-25T02:48:44.868Z,991.7
2019-04-25T02:49:45.557Z,991.8
2019-04-25T02:50:46.400Z,991.8
2019-04-25T02:51:46.939Z,991.8
2019-04-25T02:52:47.612Z,991.8
2019-04-25T02:53:48.291Z,991.9
2019-04-25T02:54:48.977Z,991.9
2019-04-25T02:55:49.668Z,991.9
2019-04-25T02:56:50.339Z,991.9
2019-04-25T02:57:51.021Z,991.9
2019-04-25T02:58:54.132Z,991.9
2019-04-25T02:59:54.603Z,991.9
2019-04-25T03:01:03.385Z,991.9
2019-04-25T03:01:54.221Z,991.9
2019-04-25T03:02:54.801Z,991.8
2019-04-25T03:03:55.095Z,991.8
2019-04-25T03:04:57.482Z,991.8
2019-04-25T03:05:57.384Z,991.7
2019-04-25T03:06:58.377Z,991.8
2019-04-25T03:07:59.376Z,991.8
2019-04-25T03:09:00.087Z,991.8
2019-04-25T03:09:59.551Z,991.8
2019-04-25T03:10:59.906Z,991.8
2019-04-25T03:12:01.642Z,991.8
2019-04-25T03:13:02.102Z,991.8
2019-04-25T03:14:02.133Z,991.8
2019-04-25T03:15:05.343Z,991.8
2019-04-25T03:16:06.899Z,991.8
2019-04-25T03:17:05.238Z,991.8
2019-04-25T03:18:07.379Z,991.8
2019-04-25T03:19:07.633Z,991.7
2019-04-25T03:20:09.254Z,991.7
2019-04-25T03:21:13.420Z,991.7
2019-04-25T03:22:09.987Z,991.7
2019-04-25T03:23:09.492Z,991.7
2019-04-25T03:24:12.456Z,991.7
2019-04-25T03:25:13.106Z,991.6
2019-04-25T03:26:10.026Z,991.6
2019-04-25T03:27:10.701Z,991.6
2019-04-25T03:28:11.401Z,991.6
2019-04-25T03:29:13.543Z,991.6
2019-04-25T03:30:14.939Z,991.6
2019-04-25T03:31:21.064Z,991.5
2019-04-25T03:32:18.761Z,991.5
2019-04-25T03:33:19.346Z,991.5
2019-04-25T03:34:20.341Z,991.5
2019-04-25T03:35:16.161Z,991.5
2019-04-25T03:36:17.240Z,991.5
2019-04-25T03:37:17.517Z,991.6
2019-04-25T03:38:18.206Z,991.6
2019-04-25T03:39:18.887Z,991.6
2019-04-25T03:40:19.567Z,991.6
2019-04-25T03:41:20.246Z,991.6
2019-04-25T03:42:20.932Z,991.7
2019-04-25T03:43:23.182Z,991.7
2019-04-25T03:44:23.695Z,991.7
2019-04-25T03:45:23.709Z,991.7
2019-04-25T03:46:23.659Z,991.7
2019-04-25T03:47:24.342Z,991.7
2019-04-25T03:48:25.226Z,991.7
2019-04-25T03:49:25.704Z,991.7
2019-04-25T03:50:26.387Z,991.7
2019-04-25T03:51:27.077Z,991.7
2019-04-25T03:52:27.762Z,991.7
2019-04-25T03:53:28.444Z,991.7
2019-04-25T03:54:29.136Z,991.8
2019-04-25T03:55:29.818Z,991.8
2019-04-25T03:56:30.508Z,991.8
2019-04-25T03:57:31.187Z,991.8
2019-04-25T03:58:31.874Z,991.8
2019-04-25T03:59:33.606Z,991.8
2019-04-25T04:00:34.224Z,991.8
2019-04-25T04:01:34.296Z,991.8
2019-04-25T04:02:34.607Z,991.7
2019-04-25T04:03:35.301Z,991.8
2019-04-25T04:04:35.992Z,991.7
2019-04-25T04:05:36.672Z,991.8
2019-04-25T04:06:37.359Z,991.8
2019-04-25T04:07:38.042Z,991.8
2019-04-25T04:08:38.736Z,991.8
2019-04-25T04:09:39.408Z,991.8
2019-04-25T04:10:40.099Z,991.9
2019-04-25T04:11:40.782Z,991.8
2019-04-25T04:12:41.463Z,991.8
2019-04-25T04:13:43.823Z,991.8
2019-04-25T04:14:43.758Z,991.8
2019-04-25T04:15:43.520Z,991.8
2019-04-25T04:16:44.379Z,991.8
2019-04-25T04:17:44.884Z,991.9
2019-04-25T04:18:45.574Z,991.8
2019-04-25T04:19:46.259Z,991.9
2019-04-25T04:20:46.945Z,991.9
2019-04-25T04:21:47.634Z,991.9
2019-04-25T04:22:48.318Z,992.0
2019-04-25T04:23:49.003Z,992.0
2019-04-25T04:24:49.694Z,992.0
2019-04-25T04:25:50.384Z,992.1
2019-04-25T04:27:02.036Z,992.1
2019-04-25T04:27:51.777Z,992.2
2019-04-25T04:28:53.320Z,992.2
2019-04-25T04:29:54.267Z,992.2
2019-04-25T04:30:54.155Z,992.2
2019-04-25T04:31:54.523Z,992.3
2019-04-25T04:32:55.178Z,992.3
2019-04-25T04:33:55.871Z,992.3
2019-04-25T04:34:56.551Z,992.3
2019-04-25T04:35:57.242Z,992.3
2019-04-25T04:36:57.926Z,992.3
2019-04-25T04:37:58.628Z,992.3
2019-04-25T04:38:59.298Z,992.3
2019-04-25T04:39:59.992Z,992.3
2019-04-25T04:41:00.674Z,992.3
2019-04-25T04:42:01.365Z,992.3
2019-04-25T04:43:02.055Z,992.3
2019-04-25T04:44:04.166Z,992.3
2019-04-25T04:45:03.679Z,992.4
2019-04-25T04:46:04.348Z,992.3
2019-04-25T04:47:05.025Z,992.2
2019-04-25T04:48:05.707Z,992.3
2019-04-25T04:49:06.388Z,992.3
2019-04-25T04:50:07.077Z,992.3
2019-04-25T04:51:08.941Z,992.3
2019-04-25T04:52:09.323Z,992.3
2019-04-25T04:53:09.267Z,992.3
2019-04-25T04:54:09.808Z,992.3
2019-04-25T04:55:11.657Z,992.3
2019-04-25T04:56:11.338Z,992.3
2019-04-25T04:57:23.228Z,992.4
2019-04-25T04:58:13.097Z,992.4
2019-04-25T04:59:14.607Z,992.5
2019-04-25T05:00:14.564Z,992.5
2019-04-25T05:01:15.619Z,992.5
2019-04-25T05:02:16.511Z,992.5
2019-04-25T05:03:16.859Z,992.5
2019-04-25T05:04:17.159Z,992.5
2019-04-25T05:05:17.344Z,992.5
2019-04-25T05:06:18.044Z,992.5
2019-04-25T05:07:19.515Z,992.5
2019-04-25T05:08:19.400Z,992.6
2019-04-25T05:09:20.087Z,992.6
2019-04-25T05:10:20.779Z,992.6
2019-04-25T05:11:23.558Z,992.6
2019-04-25T05:12:22.137Z,992.6
2019-04-25T05:13:24.165Z,992.6
2019-04-25T05:14:23.915Z,992.6
2019-04-25T05:15:24.763Z,992.6
2019-04-25T05:16:24.873Z,992.6
2019-04-25T05:17:25.564Z,992.6
2019-04-25T05:18:37.001Z,992.6
2019-04-25T05:19:26.931Z,992.6
2019-04-25T05:20:27.619Z,992.6
2019-04-25T05:21:28.310Z,992.6
2019-04-25T05:22:28.998Z,992.6
2019-04-25T05:23:29.695Z,992.6
2019-04-25T05:24:30.375Z,992.7
2019-04-25T05:25:31.065Z,992.7
2019-04-25T05:26:31.755Z,992.7
2019-04-25T05:27:46.395Z,992.7
2019-04-25T05:28:33.476Z,992.7
2019-04-25T05:29:34.095Z,992.8
2019-04-25T05:30:34.501Z,992.8
2019-04-25T05:31:35.188Z,992.8
2019-04-25T05:32:35.925Z,992.8
2019-04-25T05:33:36.567Z,992.8
2019-04-25T05:34:37.258Z,992.8
2019-04-25T05:35:37.950Z,992.8
2019-04-25T05:36:38.643Z,992.8
2019-04-25T05:37:39.338Z,992.9
2019-04-25T05:38:40.027Z,992.9
2019-04-25T05:39:40.740Z,992.9
2019-04-25T05:40:41.386Z,992.9
2019-04-25T05:41:42.080Z,992.9
2019-04-25T05:42:44.295Z,993.0
2019-04-25T05:43:43.656Z,992.9
2019-04-25T05:44:44.337Z,992.9
2019-04-25T05:45:45.032Z,992.9
2019-04-25T05:46:45.737Z,992.9
2019-04-25T05:47:46.445Z,992.9
2019-04-25T05:48:47.120Z,992.9
2019-04-25T05:49:47.813Z,992.9
2019-04-25T05:50:48.511Z,992.9
2019-04-25T05:51:49.208Z,992.9
2019-04-25T05:52:49.897Z,992.9
2019-04-25T05:53:50.593Z,992.9
2019-04-25T05:54:51.282Z,992.9
2019-04-25T05:55:51.945Z,992.9
2019-04-25T05:56:53.746Z,992.9
2019-04-25T05:57:54.286Z,992.9
2019-04-25T05:58:54.983Z,992.9
2019-04-25T05:59:55.677Z,992.9
2019-04-25T06:00:56.380Z,992.8
2019-04-25T06:01:57.064Z,992.9
2019-04-25T06:02:57.748Z,992.9
2019-04-25T06:03:58.442Z,992.9
2019-04-25T06:04:59.133Z,992.9
2019-04-25T06:05:59.824Z,992.9
2019-04-25T06:07:00.515Z,993.0
2019-04-25T06:08:01.206Z,992.9
2019-04-25T06:09:01.976Z,992.9
2019-04-25T06:10:04.092Z,992.9
2019-04-25T06:11:03.957Z,992.9
2019-04-25T06:12:04.729Z,993.0
2019-04-25T06:13:04.736Z,992.9
2019-04-25T06:14:05.427Z,993.0
2019-04-25T06:15:06.118Z,993.0
2019-04-25T06:16:06.788Z,993.0
2019-04-25T06:17:07.482Z,993.0
2019-04-25T06:18:08.170Z,993.0
2019-04-25T06:19:14.307Z,993.0
2019-04-25T06:20:09.552Z,993.1
2019-04-25T06:21:10.252Z,993.0
2019-04-25T06:22:10.939Z,993.1
2019-04-25T06:23:13.193Z,993.1
2019-04-25T06:24:13.295Z,993.0
2019-04-25T06:25:16.249Z,993.1
2019-04-25T06:26:22.862Z,993.1
2019-04-25T06:27:14.415Z,993.1
2019-04-25T06:28:15.100Z,993.1
2019-04-25T06:29:15.787Z,993.1
2019-04-25T06:30:16.571Z,993.1
2019-04-25T06:31:17.174Z,993.1
2019-04-25T06:32:17.871Z,993.1
2019-04-25T06:33:18.606Z,993.1
2019-04-25T06:34:19.981Z,993.1
2019-04-25T06:35:21.029Z,993.2
2019-04-25T06:36:21.096Z,993.2
2019-04-25T06:37:21.406Z,993.2
2019-04-25T06:38:24.839Z,993.2
2019-04-25T06:39:24.390Z,993.2
2019-04-25T06:40:24.164Z,993.2
2019-04-25T06:41:25.852Z,993.2
2019-04-25T06:42:25.698Z,993.2
2019-04-25T06:43:25.798Z,993.2
2019-04-25T06:44:27.160Z,993.2
2019-04-25T06:45:26.833Z,993.2
2019-04-25T06:46:27.526Z,993.2
2019-04-25T06:47:28.223Z,993.2
2019-04-25T06:48:29.012Z,993.2
2019-04-25T06:49:29.603Z,993.3
2019-04-25T06:50:30.296Z,993.2
2019-04-25T06:51:30.992Z,993.2
2019-04-25T06:52:32.139Z,993.2
2019-04-25T06:53:34.465Z,993.2
2019-04-25T06:54:33.490Z,993.2
2019-04-25T06:55:34.313Z,993.2
2019-04-25T06:56:34.529Z,993.2
2019-04-25T06:57:35.141Z,993.2
2019-04-25T06:58:35.833Z,993.2
2019-04-25T06:59:40.939Z,993.2
2019-04-25T07:00:41.242Z,993.2
2019-04-25T07:01:37.906Z,993.2
2019-04-25T07:02:38.596Z,993.2
2019-04-25T07:03:39.290Z,993.2
2019-04-25T07:04:40.283Z,993.1
2019-04-25T07:05:41.067Z,993.2
2019-04-25T07:06:43.464Z,993.2
2019-04-25T07:07:45.259Z,993.2
2019-04-25T07:08:44.569Z,993.2
2019-04-25T07:09:43.780Z,993.2
2019-04-25T07:10:44.699Z,993.2
2019-04-25T07:11:48.080Z,993.2
2019-04-25T07:12:45.814Z,993.2
2019-04-25T07:13:46.512Z,993.2
2019-04-25T07:14:47.205Z,993.2
2019-04-25T07:15:47.897Z,993.2
2019-04-25T07:16:48.593Z,993.1
2019-04-25T07:17:49.285Z,993.2
2019-04-25T07:18:49.988Z,993.2
2019-04-25T07:19:50.723Z,993.2
2019-04-25T07:20:51.421Z,993.3
2019-04-25T07:21:52.119Z,993.3
2019-04-25T07:22:53.739Z,993.3
2019-04-25T07:23:54.156Z,993.3
2019-04-25T07:24:54.198Z,993.3
2019-04-25T07:25:54.893Z,993.3
2019-04-25T07:26:55.582Z,993.4
2019-04-25T07:27:56.278Z,993.3
2019-04-25T07:28:56.976Z,993.5
2019-04-25T07:29:57.670Z,993.5
2019-04-25T07:30:58.382Z,993.4
2019-04-25T07:31:59.072Z,993.4
2019-04-25T07:32:59.755Z,993.4
2019-04-25T07:34:00.449Z,993.4
2019-04-25T07:35:01.146Z,993.4
2019-04-25T07:36:01.838Z,993.4
2019-04-25T07:37:03.419Z,993.4
2019-04-25T07:38:03.986Z,993.4
2019-04-25T07:39:09.732Z,993.3
2019-04-25T07:40:04.607Z,993.3
2019-04-25T07:41:05.304Z,993.3
2019-04-25T07:42:06.000Z,993.4
2019-04-25T07:43:06.694Z,993.3
2019-04-25T07:44:07.397Z,993.3
2019-04-25T07:45:08.169Z,993.3
2019-04-25T07:46:08.832Z,993.3
2019-04-25T07:47:09.531Z,993.4
2019-04-25T07:48:10.231Z,993.4
2019-04-25T07:49:10.921Z,993.4
2019-04-25T07:50:11.620Z,993.4
2019-04-25T07:51:16.197Z,993.4
2019-04-25T07:52:13.585Z,993.4
2019-04-25T07:53:14.315Z,993.4
2019-04-25T07:54:14.432Z,993.3
2019-04-25T07:55:15.095Z,993.4
2019-04-25T07:56:15.801Z,993.4
2019-04-25T07:57:16.490Z,993.5
2019-04-25T07:58:17.187Z,993.4
2019-04-25T07:59:17.883Z,993.4
2019-04-25T08:00:18.575Z,993.4
2019-04-25T08:01:19.273Z,993.4
2019-04-25T08:02:19.977Z,993.4
2019-04-25T08:03:20.668Z,993.4
2019-04-25T08:04:21.372Z,993.4
2019-04-25T08:05:22.080Z,993.4
2019-04-25T08:06:24.260Z,993.5
2019-04-25T08:07:24.071Z,993.5
2019-04-25T08:08:24.149Z,993.4
2019-04-25T08:09:24.853Z,993.5
2019-04-25T08:10:25.543Z,993.5
2019-04-25T08:11:26.243Z,993.5
2019-04-25T08:12:28.255Z,993.5
2019-04-25T08:13:27.758Z,993.5
2019-04-25T08:14:28.544Z,993.5
2019-04-25T08:15:29.967Z,993.5
2019-04-25T08:16:30.059Z,993.5
2019-04-25T08:17:30.548Z,993.5
2019-04-25T08:18:31.075Z,993.5
2019-04-25T08:19:33.224Z,993.5
2019-04-25T08:20:34.291Z,993.5
2019-04-25T08:21:34.428Z,993.5
2019-04-25T08:22:42.931Z,993.5
2019-04-25T08:23:36.727Z,993.6
2019-04-25T08:24:35.858Z,993.6
2019-04-25T08:25:38.901Z,993.7
2019-04-25T08:26:37.516Z,993.7
2019-04-25T08:27:37.326Z,993.7
2019-04-25T08:28:49.974Z,993.8
2019-04-25T08:29:39.764Z,993.8
2019-04-25T08:30:39.419Z,993.9
2019-04-25T08:31:40.112Z,993.9
2019-04-25T08:32:41.577Z,993.9
2019-04-25T08:33:43.524Z,993.8
2019-04-25T08:34:43.189Z,993.8
2019-04-25T08:36:02.976Z,993.8
2019-04-25T08:36:45.404Z,993.8
2019-04-25T08:37:44.284Z,993.9
2019-04-25T08:38:44.984Z,993.8
2019-04-25T08:39:45.682Z,993.8
2019-04-25T08:40:46.383Z,993.8
2019-04-25T08:41:47.075Z,993.8
2019-04-25T08:42:47.776Z,993.8
2019-04-25T08:43:48.513Z,993.7
2019-04-25T08:44:49.198Z,993.8
2019-04-25T08:45:49.873Z,993.8
2019-04-25T08:46:50.567Z,993.8
2019-04-25T08:47:51.266Z,993.7
2019-04-25T08:48:53.912Z,993.8
2019-04-25T08:49:53.879Z,993.7
2019-04-25T08:50:53.773Z,993.8
2019-04-25T08:51:55.807Z,993.7
2019-04-25T08:52:55.024Z,993.6
2019-04-25T08:53:55.721Z,993.8
2019-04-25T08:54:57.645Z,993.7
2019-04-25T08:55:57.113Z,993.8
2019-04-25T08:56:57.811Z,993.7
2019-04-25T08:57:58.509Z,993.8
2019-04-25T08:59:05.523Z,993.8
2019-04-25T08:59:59.913Z,993.8
2019-04-25T09:01:01.534Z,993.9
2019-04-25T09:02:01.315Z,993.8
2019-04-25T09:03:02.017Z,993.8
2019-04-25T09:04:04.963Z,993.8
2019-04-25T09:05:04.113Z,993.8
2019-04-25T09:06:04.152Z,993.8
2019-04-25T09:07:05.465Z,993.7
2019-04-25T09:08:05.485Z,993.7
2019-04-25T09:09:07.245Z,993.7
2019-04-25T09:10:06.877Z,993.8
2019-04-25T09:11:07.581Z,993.8
2019-04-25T09:12:08.278Z,993.8
2019-04-25T09:13:08.999Z,993.7
2019-04-25T09:14:09.694Z,993.8
2019-04-25T09:15:10.360Z,993.7
2019-04-25T09:16:11.056Z,993.7
2019-04-25T09:17:11.752Z,993.7
2019-04-25T09:18:14.019Z,993.7
2019-04-25T09:19:14.228Z,993.7
2019-04-25T09:20:14.065Z,993.8
2019-04-25T09:21:14.590Z,993.9
2019-04-25T09:22:15.288Z,993.8
2019-04-25T09:23:15.987Z,993.8
2019-04-25T09:24:16.687Z,993.8
2019-04-25T09:25:17.391Z,993.7
2019-04-25T09:26:18.088Z,993.9
2019-04-25T09:27:18.787Z,993.8
2019-04-25T09:28:19.489Z,994.0
2019-04-25T09:29:20.192Z,993.8
2019-04-25T09:30:20.934Z,993.9
2019-04-25T09:31:23.471Z,993.9
2019-04-25T09:32:23.864Z,993.8
2019-04-25T09:33:23.289Z,993.8
2019-04-25T09:34:23.895Z,993.8
2019-04-25T09:35:24.489Z,993.8
2019-04-25T09:36:25.159Z,993.8
2019-04-25T09:37:25.858Z,993.9
2019-04-25T09:38:26.560Z,993.8
2019-04-25T09:39:27.257Z,993.8
2019-04-25T09:40:27.957Z,993.8
2019-04-25T09:41:28.662Z,993.8
2019-04-25T09:42:29.359Z,993.9
2019-04-25T09:43:30.060Z,993.9
2019-04-25T09:44:30.762Z,994.0
2019-04-25T09:45:31.462Z,994.0
2019-04-25T09:46:32.159Z,994.0
2019-04-25T09:47:33.529Z,994.1
2019-04-25T09:48:35.346Z,994.1
2019-04-25T09:49:35.211Z,994.0
2019-04-25T09:50:34.946Z,994.0
2019-04-25T09:51:36.013Z,994.0
2019-04-25T09:52:36.340Z,994.0
2019-04-25T09:53:43.447Z,994.0
2019-04-25T09:54:38.067Z,994.0
2019-04-25T09:55:39.586Z,994.1
2019-04-25T09:56:40.469Z,994.0
2019-04-25T09:57:40.934Z,994.1
2019-04-25T09:58:42.121Z,994.1
2019-04-25T09:59:43.984Z,994.1
2019-04-25T10:00:44.568Z,994.1
2019-04-25T10:01:44.811Z,994.1
2019-04-25T10:02:44.651Z,994.1
2019-04-25T10:03:45.737Z,994.2
2019-04-25T10:04:46.380Z,994.2
2019-04-25T10:05:46.870Z,994.2
2019-04-25T10:06:47.553Z,994.1
2019-04-25T10:07:48.977Z,994.1
2019-04-25T10:08:48.668Z,994.1
2019-04-25T10:09:49.368Z,994.2
2019-04-25T10:10:50.070Z,994.2
2019-04-25T10:11:50.774Z,994.1
2019-04-25T10:12:51.468Z,994.2
2019-04-25T10:13:53.515Z,994.1
2019-04-25T10:14:54.264Z,994.1
2019-04-25T10:15:54.551Z,994.1
2019-04-25T10:16:54.264Z,994.1
2019-04-25T10:17:54.957Z,994.1
2019-04-25T10:18:55.657Z,994.1
2019-04-25T10:19:56.358Z,994.1
2019-04-25T10:20:57.054Z,994.1
2019-04-25T10:21:57.757Z,994.1
2019-04-25T10:22:58.457Z,994.3
2019-04-25T10:23:59.157Z,994.2
2019-04-25T10:25:00.824Z,994.2
2019-04-25T10:26:00.552Z,994.1
2019-04-25T10:27:01.253Z,994.0
2019-04-25T10:28:01.953Z,994.1
2019-04-25T10:29:02.657Z,994.0
2019-04-25T10:30:16.048Z,994.0
2019-04-25T10:31:04.052Z,993.9
2019-04-25T10:32:04.801Z,993.9
2019-04-25T10:33:05.509Z,994.0
2019-04-25T10:34:06.207Z,993.9
2019-04-25T10:35:06.908Z,994.0
2019-04-25T10:36:07.612Z,993.9
2019-04-25T10:37:08.317Z,993.9
2019-04-25T10:38:09.020Z,994.0
2019-04-25T10:39:11.131Z,993.9
2019-04-25T10:40:10.422Z,993.9
2019-04-25T10:41:11.124Z,993.9
2019-04-25T10:42:13.536Z,993.9
2019-04-25T10:43:13.807Z,993.9
2019-04-25T10:44:14.142Z,994.0
2019-04-25T10:45:21.291Z,993.8
2019-04-25T10:46:14.603Z,993.9
2019-04-25T10:47:15.302Z,993.9
2019-04-25T10:48:16.006Z,993.9
2019-04-25T10:49:16.705Z,993.9
2019-04-25T10:50:17.405Z,993.8
2019-04-25T10:51:18.106Z,993.8
2019-04-25T10:52:18.812Z,993.9
2019-04-25T10:53:19.508Z,993.8
2019-04-25T10:54:20.209Z,993.8
2019-04-25T10:55:20.929Z,993.7
2019-04-25T10:56:21.620Z,993.8
2019-04-25T10:57:22.370Z,993.8
2019-04-25T10:58:23.018Z,993.8
2019-04-25T10:59:23.738Z,993.8
2019-04-25T11:00:24.427Z,993.7
2019-04-25T11:01:25.122Z,993.8
2019-04-25T11:02:25.822Z,993.8
2019-04-25T11:03:26.629Z,993.8
2019-04-25T11:04:27.221Z,993.9
2019-04-25T11:05:27.924Z,993.9
2019-04-25T11:06:28.629Z,993.9
2019-04-25T11:07:29.300Z,993.9
2019-04-25T11:08:30.004Z,993.9
2019-04-25T11:09:30.702Z,993.8
2019-04-25T11:10:31.406Z,993.9
2019-04-25T11:11:32.117Z,993.8
2019-04-25T11:12:33.788Z,993.8
2019-04-25T11:13:35.270Z,993.8
2019-04-25T11:14:34.350Z,993.8
2019-04-25T11:15:34.916Z,993.8
2019-04-25T11:16:35.615Z,993.8
2019-04-25T11:17:36.363Z,993.8
2019-04-25T11:18:37.011Z,993.8
2019-04-25T11:19:37.717Z,993.8
2019-04-25T11:20:38.418Z,993.8
2019-04-25T11:21:39.120Z,993.8
2019-04-25T11:22:39.823Z,993.8
2019-04-25T11:23:41.382Z,993.8
2019-04-25T11:24:41.638Z,993.8
2019-04-25T11:25:42.946Z,993.8
2019-04-25T11:26:44.597Z,993.8
2019-04-25T11:27:46.676Z,993.8
2019-04-25T11:28:45.326Z,993.7
2019-04-25T11:29:45.065Z,993.7
2019-04-25T11:30:46.514Z,993.8
2019-04-25T11:31:47.293Z,993.8
2019-04-25T11:32:46.793Z,993.8
2019-04-25T11:33:47.505Z,993.8
2019-04-25T11:34:48.203Z,993.8
2019-04-25T11:35:49.034Z,993.8
2019-04-25T11:36:49.604Z,993.8
2019-04-25T11:37:50.546Z,993.9
2019-04-25T11:38:52.191Z,993.9
2019-04-25T11:39:51.698Z,993.8
2019-04-25T11:40:54.953Z,993.8
2019-04-25T11:41:55.345Z,993.9
2019-04-25T11:42:54.596Z,994.0
2019-04-25T11:43:55.639Z,993.8
2019-04-25T11:44:55.575Z,993.8
2019-04-25T11:45:57.068Z,993.8
2019-04-25T11:46:56.597Z,993.7
2019-04-25T11:47:57.264Z,993.7
2019-04-25T11:48:57.974Z,993.7
2019-04-25T11:49:58.677Z,993.8
2019-04-25T11:50:59.379Z,993.8
2019-04-25T11:52:00.092Z,993.7
2019-04-25T11:53:00.991Z,993.7
2019-04-25T11:54:01.483Z,993.7
2019-04-25T11:55:04.072Z,993.8
2019-04-25T11:56:03.729Z,993.8
2019-04-25T11:57:03.624Z,993.8
2019-04-25T11:58:04.282Z,993.8
2019-04-25T11:59:04.986Z,993.8
2019-04-25T12:00:05.683Z,993.8
2019-04-25T12:01:06.402Z,993.8
2019-04-25T12:02:07.161Z,993.7
2019-04-25T12:03:07.862Z,993.7
2019-04-25T12:04:08.620Z,993.7
2019-04-25T12:05:09.321Z,993.6
2019-04-25T12:06:11.320Z,993.6
2019-04-25T12:07:10.716Z,993.6
2019-04-25T12:08:11.429Z,993.6
2019-04-25T12:09:13.754Z,993.5
2019-04-25T12:10:12.828Z,993.5
2019-04-25T12:11:13.967Z,993.6
2019-04-25T12:12:14.690Z,993.5
2019-04-25T12:13:15.443Z,993.5
2019-04-25T12:14:15.624Z,993.5
2019-04-25T12:15:16.327Z,993.6
2019-04-25T12:16:17.035Z,993.5
2019-04-25T12:17:17.738Z,993.5
2019-04-25T12:18:18.445Z,993.5
2019-04-25T12:19:19.114Z,993.5
2019-04-25T12:20:19.825Z,993.5
2019-04-25T12:21:20.526Z,993.4
2019-04-25T12:22:21.229Z,993.4
2019-04-25T12:23:23.338Z,993.5
2019-04-25T12:24:23.917Z,993.5
2019-04-25T12:25:23.706Z,993.5
2019-04-25T12:26:26.148Z,993.5
2019-04-25T12:27:24.740Z,993.4
2019-04-25T12:28:25.427Z,993.4
2019-04-25T12:29:26.132Z,993.3
2019-04-25T12:30:37.305Z,993.3
2019-04-25T12:31:27.533Z,993.2
2019-04-25T12:32:28.253Z,993.2
2019-04-25T12:33:28.954Z,993.2
2019-04-25T12:34:29.658Z,993.2
2019-04-25T12:35:30.362Z,993.2
2019-04-25T12:36:31.069Z,993.2
2019-04-25T12:37:31.741Z,993.2
2019-04-25T12:38:33.480Z,993.2
2019-04-25T12:39:34.167Z,993.2
2019-04-25T12:40:34.813Z,993.3
2019-04-25T12:41:35.513Z,993.2
2019-04-25T12:42:36.224Z,993.3
2019-04-25T12:43:36.923Z,993.2
2019-04-25T12:44:37.618Z,993.2
2019-04-25T12:45:38.290Z,993.2
2019-04-25T12:46:38.994Z,993.3
2019-04-25T12:47:39.698Z,993.2
2019-04-25T12:48:41.105Z,993.3
2019-04-25T12:49:43.694Z,993.2
2019-04-25T12:50:43.993Z,993.2
2019-04-25T12:51:44.173Z,993.3
2019-04-25T12:52:46.515Z,993.2
2019-04-25T12:53:46.462Z,993.3
2019-04-25T12:54:47.435Z,993.2
2019-04-25T12:55:47.497Z,993.2
2019-04-25T12:56:47.726Z,993.2
2019-04-25T12:57:49.438Z,993.3
2019-04-25T12:58:49.119Z,993.2
2019-04-25T12:59:49.824Z,993.2
2019-04-25T13:00:54.194Z,993.3
2019-04-25T13:01:51.280Z,993.3